Terminal Aerodrome Forecast
Issued by NWS

Home | Current Version | Previous Version | Graphics & Text | Print | Product List | Glossary On
Versions: 1 2 3 4 5 6 7 8 9 10 11 12 13 14 15 16 17 18 19 20
381
FTUS43 KTOP 160530
TAFFOE
TAF
KFOE 160530Z 1606/1706 VRB03KT P6SM SCT250
     FM161500 13010KT P6SM FEW250
     FM161900 16013KT P6SM FEW250
     FM170400 17010KT P6SM BKN015=

USA.gov is the U.S. government's official web portal to all federal, state and local government web resources and services.